Time;durP1;ratioP1;P1;durP2;ratioP2;P2;SDS_P1;SDS_P2;PMS_P1;PMS_P2;Temp;Humidity;BMP_temperature;BMP_pressure;BME280_temperature;BME280_humidity;BME280_pressure;Samples;Min_cycle;Max_cycle;Signal;HPM_P1;HPM_P2
2022/04/12 00:02:05;;;;;;;4.80;4.00;;;;;;;-2.34;75.77;97695.48;110029;1247;59732;-61
2022/04/12 00:04:35;;;;;;;6.00;4.90;;;;;;;-2.36;76.53;97699.29;110116;1247;59748;-61
2022/04/12 00:07:06;;;;;;;8.10;4.70;;;;;;;-2.38;77.05;97698.64;110078;1247;71512;-62
2022/04/12 00:09:36;;;;;;;6.90;5.00;;;;;;;-2.41;75.67;97698.17;110111;1247;69095;-63
2022/04/12 00:12:06;;;;;;;5.60;4.80;;;;;;;-2.44;77.21;97692.77;109970;1249;68378;-62
2022/04/12 00:14:37;;;;;;;9.30;5.60;;;;;;;-2.44;78.08;97695.66;109921;1248;59691;-64
2022/04/12 00:19:56;;;;;;;17.60;9.30;;;;;;;-2.45;77.48;97692.77;109882;1247;70610;-63
2022/04/12 00:22:26;;;;;;;8.10;4.90;;;;;;;-2.47;75.63;97692.98;110226;1247;69439;-64
2022/04/12 00:24:55;;;;;;;;;;;;;;;-2.47;75.14;97693.16;110089;1247;68453;-65
2022/04/12 00:27:27;;;;;;;9.80;6.50;;;;;;;-2.48;75.60;97693.36;110098;1247;59707;-62
2022/04/12 00:29:56;;;;;;;7.50;5.20;;;;;;;-2.50;74.87;97690.13;110098;1247;59750;-62
2022/04/12 00:32:27;;;;;;;5.10;4.30;;;;;;;-2.52;75.34;97689.15;110114;1247;71540;-64
2022/04/12 00:34:57;;;;;;;6.70;4.80;;;;;;;-2.56;75.65;97689.88;110121;1247;68454;-61
2022/04/12 00:37:27;;;;;;;5.60;3.90;;;;;;;-2.58;76.24;97690.77;110017;1249;68615;-62
2022/04/12 00:39:57;;;;;;;;;;;;;;;-2.62;75.52;97693.39;110045;1246;59763;-62
2022/04/12 00:42:28;;;;;;;5.60;3.80;;;;;;;-2.65;75.77;97696.17;109825;1247;59756;-62
2022/04/12 00:44:58;;;;;;;8.40;5.40;;;;;;;-2.66;75.43;97693.80;110027;1248;71365;-59
2022/04/12 00:47:29;;;;;;;4.80;4.00;;;;;;;-2.68;75.25;97693.15;109883;1248;69287;-60
2022/04/12 00:49:59;;;;;;;;;;;;;;;-2.70;73.51;97690.27;110032;1247;68696;-60
2022/04/12 00:52:31;;;;;;;12.50;7.60;;;;;;;-2.71;77.97;97694.23;110055;1247;59680;-60
2022/04/12 00:55:05;;;;;;;10.30;7.30;;;;;;;-2.73;77.04;97698.34;109994;1247;59649;-63
2022/04/12 00:57:37;;;;;;;13.10;8.90;;;;;;;-2.78;79.20;97698.76;110048;1247;70784;-62
2022/04/12 01:00:10;;;;;;;8.40;5.40;;;;;;;-2.82;81.07;97696.08;109875;1249;68616;-61
2022/04/12 01:02:42;;;;;;;9.40;6.60;;;;;;;-2.86;78.83;97699.05;110000;1248;68534;-60
2022/04/12 01:05:11;;;;;;;8.70;5.90;;;;;;;-2.90;77.97;97695.20;110011;1248;59751;-63
2022/04/12 01:07:43;;;;;;;10.00;7.10;;;;;;;-2.93;75.94;97692.67;109983;1248;59685;-61
2022/04/12 01:10:13;;;;;;;8.70;5.20;;;;;;;-2.96;74.26;97697.33;109917;1249;70745;-64
2022/04/12 01:12:46;;;;;;;7.70;5.90;;;;;;;-2.98;77.55;97697.85;110066;1247;69346;-60
2022/04/12 01:15:20;;;;;;;8.70;5.80;;;;;;;-3.01;75.78;97696.20;110043;1247;68457;-61
2022/04/12 01:17:51;;;;;;;7.10;5.50;;;;;;;-3.03;75.99;97697.10;110015;1247;59770;-60
2022/04/12 01:20:29;;;;;;;11.80;7.80;;;;;;;-3.04;77.28;97696.44;110086;1247;59687;-60
2022/04/12 01:23:15;;;;;;;16.10;10.10;;;;;;;-3.03;80.32;97700.50;110072;1247;70571;-60
2022/04/12 01:25:45;;;;;;;9.70;7.20;;;;;;;-3.02;81.64;97698.09;109965;1249;69381;-61
2022/04/12 01:28:16;;;;;;;8.10;5.90;;;;;;;-3.03;79.72;97694.72;110034;1247;69773;-60
2022/04/12 01:30:47;;;;;;;8.30;5.00;;;;;;;-3.05;81.21;97699.67;110018;1247;59686;-62
2022/04/12 01:33:19;;;;;;;11.20;7.70;;;;;;;-3.08;74.99;97703.98;110032;1247;59752;-60
2022/04/12 01:35:50;;;;;;;17.10;10.60;;;;;;;-3.09;74.08;97699.39;110102;1247;70578;-61
2022/04/12 01:38:23;;;;;;;18.20;10.30;;;;;;;-3.09;74.62;97701.27;110069;1247;68886;-61
2022/04/12 01:40:55;;;;;;;19.40;12.00;;;;;;;-3.10;75.13;97702.30;110082;1247;67574;-61
2022/04/12 01:43:25;;;;;;;12.00;8.20;;;;;;;-3.11;75.68;97703.16;110087;1247;59677;-64
2022/04/12 01:45:55;;;;;;;11.70;7.70;;;;;;;-3.15;75.70;97700.98;110007;1247;59652;-62
2022/04/12 01:48:26;;;;;;;11.10;5.60;;;;;;;-3.17;76.29;97705.30;109939;1247;70735;-61
2022/04/12 01:50:56;;;;;;;9.40;6.90;;;;;;;-3.20;75.40;97704.13;110112;1247;69353;-62
2022/04/12 01:53:25;;;;;;;10.00;5.60;;;;;;;-3.23;74.88;97701.79;110039;1247;67488;-60
2022/04/12 01:55:56;;;;;;;10.20;5.90;;;;;;;-3.25;75.19;97703.52;110138;1247;60109;-64
2022/04/12 01:58:27;;;;;;;8.40;6.00;;;;;;;-3.28;75.51;97701.17;110074;1247;59625;-63
2022/04/12 02:00:59;;;;;;;14.00;9.70;;;;;;;-3.30;76.48;97698.83;110083;1246;71143;-63
2022/04/12 02:03:29;;;;;;;18.00;11.90;;;;;;;-3.31;81.76;97699.17;109833;1247;69508;-62
2022/04/12 02:06:02;;;;;;;27.60;15.80;;;;;;;-3.31;82.67;97697.83;110070;1247;69205;-63
2022/04/12 02:08:33;;;;;;;16.70;11.00;;;;;;;-3.32;83.45;97703.80;110089;1247;59738;-61
2022/04/12 02:11:03;;;;;;;14.90;8.10;;;;;;;-3.34;84.36;97700.73;110117;1247;59691;-63
2022/04/12 02:13:34;;;;;;;14.80;9.90;;;;;;;-3.34;82.05;97704.32;109970;1249;71565;-63
2022/04/12 02:16:05;;;;;;;10.90;7.10;;;;;;;-3.35;82.35;97700.41;110092;1246;69344;-62
2022/04/12 02:18:35;;;;;;;13.10;9.10;;;;;;;-3.35;81.08;97703.66;109927;1248;68557;-62
2022/04/12 02:21:06;;;;;;;11.60;8.10;;;;;;;-3.36;83.32;97698.89;110099;1247;59669;-62
2022/04/12 02:23:37;;;;;;;20.40;11.30;;;;;;;-3.35;83.36;97698.55;109889;1248;59764;-62
2022/04/12 02:26:10;;;;;;;16.40;10.10;;;;;;;-3.33;83.57;97695.80;110095;1247;69791;-65
2022/04/12 02:28:42;;;;;;;19.80;10.40;;;;;;;-3.36;83.69;97694.97;110132;1247;69421;-61
2022/04/12 02:31:12;;;;;;;9.60;7.00;;;;;;;-3.37;84.68;97694.30;110106;1246;69313;-62
2022/04/12 02:33:43;;;;;;;15.10;9.90;;;;;;;-3.39;83.28;97692.97;110105;1247;60069;-62
2022/04/12 02:36:13;;;;;;;11.20;8.00;;;;;;;-3.42;82.61;97692.15;110079;1247;59695;-61
2022/04/12 02:38:44;;;;;;;13.60;8.80;;;;;;;-3.45;82.28;97692.88;109914;1247;71549;-63
2022/04/12 02:41:15;;;;;;;11.50;7.90;;;;;;;-3.47;83.57;97695.45;110063;1249;69362;-62
2022/04/12 02:43:46;;;;;;;9.00;6.30;;;;;;;-3.49;83.03;97694.98;109807;1249;68714;-62
2022/04/12 02:46:16;;;;;;;;;;;;;;;-3.50;82.89;97689.54;110037;1247;59774;-62
2022/04/12 02:48:47;;;;;;;14.00;8.80;;;;;;;-3.52;83.62;97692.95;110018;1248;59700;-62
2022/04/12 02:51:17;;;;;;;12.80;8.60;;;;;;;-3.52;85.21;97693.46;110017;1247;70908;-63
2022/04/12 02:53:47;;;;;;;12.10;8.50;;;;;;;-3.53;84.34;97693.31;110020;1247;68622;-61
2022/04/12 02:56:18;;;;;;;11.30;7.70;;;;;;;-3.54;84.76;97689.07;110059;1248;68577;-62
2022/04/12 02:58:47;;;;;;;12.50;8.50;;;;;;;-3.57;83.61;97684.16;109861;1247;59709;-60
2022/04/12 03:01:18;;;;;;;10.10;7.40;;;;;;;-3.61;83.00;97685.39;109810;1249;59760;-60
2022/04/12 03:03:48;;;;;;;9.00;6.80;;;;;;;-3.64;82.82;97685.95;109856;1249;69753;-64
2022/04/12 03:06:19;;;;;;;10.50;7.20;;;;;;;-3.67;81.20;97683.44;109796;1249;68525;-60
2022/04/12 03:08:49;;;;;;;10.30;8.00;;;;;;;-3.69;82.07;97687.39;109954;1248;69353;-62
2022/04/12 03:11:19;;;;;;;8.90;6.40;;;;;;;-3.70;82.82;97688.23;110035;1248;59755;-61
2022/04/12 03:13:49;;;;;;;8.60;5.90;;;;;;;-3.73;80.75;97682.33;109981;1248;59683;-67
2022/04/12 03:16:19;;;;;;;9.80;6.90;;;;;;;-3.73;81.09;97684.87;110006;1247;71493;-63
2022/04/12 03:18:49;;;;;;;14.00;10.10;;;;;;;-3.73;83.42;97685.38;109862;1249;68713;-61
2022/04/12 03:21:19;;;;;;;12.20;8.00;;;;;;;-3.73;82.36;97686.92;109846;1249;69471;-62
2022/04/12 03:23:50;;;;;;;13.90;8.70;;;;;;;-3.74;81.80;97685.23;109996;1248;59758;-61
2022/04/12 03:26:19;;;;;;;10.80;7.60;;;;;;;-3.76;82.04;97686.94;109959;1248;59669;-62
2022/04/12 03:28:49;;;;;;;14.40;9.30;;;;;;;-3.77;83.16;97690.02;110015;1248;71532;-63
2022/04/12 03:31:20;;;;;;;14.20;9.70;;;;;;;-3.76;85.08;97691.02;110044;1248;68474;-61
2022/04/12 03:33:49;;;;;;;20.80;12.90;;;;;;;-3.76;85.62;97689.16;109857;1249;68641;-61
2022/04/12 03:36:19;;;;;;;20.00;12.90;;;;;;;-3.75;85.55;97690.51;110015;1247;59752;-61
2022/04/12 03:38:49;;;;;;;17.40;10.20;;;;;;;-3.74;85.68;97690.84;110094;1247;59692;-60
2022/04/12 03:41:22;;;;;;;10.50;7.60;;;;;;;-3.76;85.22;97689.67;110091;1247;69743;-61
2022/04/12 03:43:51;;;;;;;8.80;6.50;;;;;;;-3.79;83.41;97690.21;110017;1247;68532;-63
2022/04/12 03:46:21;;;;;;;18.80;10.90;;;;;;;-3.77;84.29;97692.58;110061;1247;68396;-63
2022/04/12 03:48:51;;;;;;;19.80;11.20;;;;;;;-3.74;85.84;97692.73;109925;1247;59767;-61
2022/04/12 03:51:21;;;;;;;18.10;11.40;;;;;;;-3.69;86.48;97689.59;109868;1247;59749;-63
2022/04/12 03:53:50;;;;;;;12.60;8.40;;;;;;;-3.67;86.33;97690.58;110075;1247;70786;-62
2022/04/12 03:56:20;;;;;;;13.80;10.20;;;;;;;-3.67;85.34;97697.58;110073;1247;68708;-61
2022/04/12 03:58:50;;;;;;;18.50;10.60;;;;;;;-3.67;85.41;97699.27;110064;1247;69435;-63
2022/04/12 04:01:20;;;;;;;17.70;9.70;;;;;;;-3.66;85.35;97697.89;109754;1247;59741;-65
2022/04/12 04:03:50;;;;;;;13.00;8.30;;;;;;;-3.66;85.29;97698.58;110045;1247;59688;-62
2022/04/12 04:06:19;;;;;;;16.40;9.80;;;;;;;-3.66;85.16;97698.92;109944;1247;71633;-65
2022/04/12 04:08:48;;;;;;;11.90;7.40;;;;;;;-3.67;85.11;97704.02;109981;1247;69418;-62
2022/04/12 04:11:18;;;;;;;15.00;9.70;;;;;;;-3.67;84.98;97707.62;110155;1247;68721;-66
2022/04/12 04:13:48;;;;;;;20.90;14.00;;;;;;;-3.66;85.13;97702.67;110077;1247;59682;-62
2022/04/12 04:16:17;;;;;;;18.10;11.30;;;;;;;-3.57;86.56;97704.78;109988;1247;59682;-65
2022/04/12 04:18:47;;;;;;;13.20;8.40;;;;;;;-3.48;86.75;97703.99;110057;1247;71462;-63
2022/04/12 04:21:17;;;;;;;10.00;7.70;;;;;;;-3.44;86.04;97705.30;110028;1247;68816;-62
2022/04/12 04:23:46;;;;;;;14.20;8.90;;;;;;;-3.42;85.70;97710.73;109973;1248;69262;-65
2022/04/12 04:26:16;;;;;;;17.60;11.60;;;;;;;-3.38;85.97;97713.23;110081;1247;59747;-62
2022/04/12 04:28:47;;;;;;;15.90;10.10;;;;;;;-3.26;86.80;97716.15;109895;1247;60023;-66
2022/04/12 04:31:16;;;;;;;20.80;11.60;;;;;;;-3.18;86.24;97718.60;110101;1247;70909;-63
2022/04/12 04:33:51;;;;;;;18.20;11.80;;;;;;;-3.08;85.61;97724.10;110088;1247;69683;-63
2022/04/12 04:36:21;;;;;;;16.80;11.30;;;;;;;-2.89;85.63;97733.55;109807;1249;69260;-64
2022/04/12 04:38:50;;;;;;;13.70;9.10;;;;;;;-2.68;84.93;97739.22;109935;1248;59754;-63
2022/04/12 04:41:20;;;;;;;13.70;8.80;;;;;;;-2.44;83.78;97743.29;109964;1247;59757;-66
2022/04/12 04:43:50;;;;;;;14.30;10.00;;;;;;;-2.23;82.99;97744.66;109906;1249;71613;-64
2022/04/12 04:46:19;;;;;;;17.00;10.20;;;;;;;-2.06;82.88;97742.48;109765;1249;69460;-61
2022/04/12 04:48:48;;;;;;;20.30;12.40;;;;;;;-1.92;81.88;97744.48;109672;1251;68764;-64
2022/04/12 04:51:19;;;;;;;29.60;15.60;;;;;;;-1.81;80.91;97743.23;109825;1248;59647;-63
2022/04/12 04:53:57;;;;;;;39.00;19.80;;;;;;;-1.70;80.71;97746.28;109843;1249;59684;-66
2022/04/12 04:56:27;;;;;;;43.20;21.50;;;;;;;-1.59;80.62;97745.05;109873;1248;71570;-63
2022/04/12 04:58:58;;;;;;;46.70;27.20;;;;;;;-1.49;80.13;97746.91;110089;1247;69539;-63
2022/04/12 05:01:27;;;;;;;;;;;;;;;-1.40;79.73;97752.89;109996;1247;69551;-63
2022/04/12 05:03:56;;;;;;;39.00;17.60;;;;;;;-1.31;79.45;97752.36;109865;1248;59668;-66
2022/04/12 05:06:26;;;;;;;31.40;16.00;;;;;;;-1.13;78.79;97757.83;109912;1249;59744;-62
2022/04/12 05:08:55;;;;;;;31.00;19.50;;;;;;;-0.82;78.49;97762.13;109809;1249;71004;-66
2022/04/12 05:11:24;;;;;;;27.40;19.20;;;;;;;-0.61;77.56;97761.31;109980;1248;69591;-63
2022/04/12 05:13:55;;;;;;;22.20;16.10;;;;;;;-0.49;77.18;97762.39;109924;1249;69462;-65
2022/04/12 05:16:24;;;;;;;;;;;;;;;-0.49;76.63;97760.00;109825;1248;59712;-65
2022/04/12 05:18:54;;;;;;;22.60;15.60;;;;;;;-0.41;76.73;97756.39;109952;1249;59621;-64
2022/04/12 05:21:24;;;;;;;35.00;25.40;;;;;;;-0.36;76.27;97758.15;110054;1247;70814;-64
2022/04/12 05:23:54;;;;;;;22.50;16.20;;;;;;;-0.30;76.06;97766.57;109860;1249;69440;-63
2022/04/12 05:26:23;;;;;;;33.10;23.00;;;;;;;-0.25;75.79;97771.27;109798;1250;68461;-63
2022/04/12 05:28:52;;;;;;;42.30;21.30;;;;;;;-0.31;75.71;97776.90;109728;1249;60196;-64
2022/04/12 05:31:22;;;;;;;31.60;16.30;;;;;;;-0.24;75.63;97778.26;110042;1248;59747;-65
2022/04/12 05:33:51;;;;;;;25.00;15.10;;;;;;;-0.17;75.85;97774.48;109864;1249;70853;-66
2022/04/12 05:36:21;;;;;;;20.40;12.50;;;;;;;-0.10;75.70;97775.70;110079;1248;68597;-67
2022/04/12 05:38:52;;;;;;;22.40;13.40;;;;;;;0.01;75.53;97777.66;109820;1249;68501;-64
2022/04/12 05:41:22;;;;;;;24.80;11.60;;;;;;;0.10;75.47;97778.45;109925;1249;59833;-65
2022/04/12 05:43:52;;;;;;;22.60;12.90;;;;;;;0.20;74.65;97783.51;109861;1248;59747;-64
2022/04/12 05:46:21;;;;;;;;;;;;;;;0.26;74.37;97784.39;109709;1250;70761;-65
2022/04/12 05:48:51;;;;;;;22.00;12.90;;;;;;;0.36;73.99;97780.70;109791;1249;68488;-64
2022/04/12 05:51:20;;;;;;;16.50;11.30;;;;;;;0.63;74.48;97769.02;109780;1249;69319;-60
2022/04/12 05:53:50;;;;;;;22.20;15.60;;;;;;;1.15;73.06;97764.77;109903;1248;59690;-63
2022/04/12 05:56:19;;;;;;;16.10;12.10;;;;;;;1.62;71.08;97774.00;109754;1249;59760;-61
2022/04/12 05:58:49;;;;;;;15.30;10.50;;;;;;;1.81;69.38;97782.52;109851;1247;71344;-65
2022/04/12 06:01:18;;;;;;;46.40;35.00;;;;;;;1.89;68.37;97785.17;109995;1247;68782;-64
2022/04/12 06:03:48;;;;;;;29.30;23.90;;;;;;;2.09;67.44;97792.09;109711;1250;69385;-63
2022/04/12 06:06:17;;;;;;;18.20;13.40;;;;;;;2.18;66.58;97796.94;109921;1248;59749;-63
2022/04/12 06:08:47;;;;;;;19.00;14.40;;;;;;;2.48;67.04;97800.08;109936;1248;59757;-64
2022/04/12 06:11:16;;;;;;;14.90;11.90;;;;;;;2.70;66.46;97802.91;109916;1249;71559;-61
2022/04/12 06:13:46;;;;;;;18.10;12.70;;;;;;;3.01;66.29;97803.70;109783;1249;69519;-62
2022/04/12 06:16:15;;;;;;;12.70;9.90;;;;;;;3.14;64.83;97802.20;110025;1248;68873;-62
2022/04/12 06:18:45;;;;;;;17.30;13.10;;;;;;;3.41;62.72;97799.64;109871;1250;59611;-63
2022/04/12 06:21:14;;;;;;;18.60;14.10;;;;;;;3.66;64.10;97799.05;109700;1251;59689;-63
2022/04/12 06:23:45;;;;;;;;;;;;;;;3.90;62.92;97801.00;109835;1249;70812;-64
2022/04/12 06:26:15;;;;;;;16.50;12.70;;;;;;;4.16;63.76;97800.86;109282;1249;670546;-65
2022/04/12 06:28:44;;;;;;;14.00;10.80;;;;;;;4.27;62.42;97799.50;109749;1250;69552;-65
2022/04/12 06:31:14;;;;;;;20.50;14.40;;;;;;;4.40;61.71;97799.14;109857;1249;59698;-61
2022/04/12 06:33:44;;;;;;;18.20;14.30;;;;;;;4.40;61.56;97796.91;109841;1249;59686;-63
2022/04/12 06:36:13;;;;;;;21.10;14.20;;;;;;;4.20;61.69;97807.05;109910;1249;72755;-63
2022/04/12 06:38:42;;;;;;;18.10;13.10;;;;;;;4.12;62.01;97809.27;109905;1247;69461;-62
2022/04/12 06:41:12;;;;;;;19.30;12.80;;;;;;;4.15;62.08;97813.30;110026;1247;69363;-69
2022/04/12 06:43:41;;;;;;;17.30;12.40;;;;;;;4.27;61.68;97814.00;110062;1247;59758;-63
2022/04/12 06:46:11;;;;;;;18.40;12.10;;;;;;;4.53;61.64;97806.21;110041;1247;59662;-62
2022/04/12 06:48:41;;;;;;;16.80;12.80;;;;;;;4.78;60.75;97800.80;109835;1249;69959;-62
2022/04/12 06:51:10;;;;;;;17.40;12.10;;;;;;;5.10;59.73;97795.80;109978;1247;68699;-63
2022/04/12 06:53:40;;;;;;;16.80;11.60;;;;;;;5.58;58.26;97799.30;109925;1248;69442;-64
2022/04/12 06:56:09;;;;;;;19.50;11.60;;;;;;;5.98;56.68;97802.77;109997;1249;59726;-68
2022/04/12 06:58:39;;;;;;;14.10;10.00;;;;;;;6.25;55.85;97804.42;109856;1247;59618;-62
2022/04/12 07:01:09;;;;;;;15.30;11.60;;;;;;;6.32;54.58;97808.02;109807;1249;71596;-64
2022/04/12 07:03:39;;;;;;;18.10;14.50;;;;;;;6.24;54.42;97806.02;110021;1247;68644;-64
2022/04/12 07:06:08;;;;;;;17.10;13.50;;;;;;;6.15;54.08;97808.88;109899;1247;68668;-64
2022/04/12 07:08:37;;;;;;;17.40;12.30;;;;;;;6.49;54.24;97808.63;109981;1247;59745;-69
2022/04/12 07:11:06;;;;;;;11.60;9.20;;;;;;;6.79;52.10;97807.25;109791;1247;59694;-62
2022/04/12 07:13:36;;;;;;;12.20;9.20;;;;;;;7.18;51.40;97801.77;110061;1247;71557;-67
2022/04/12 07:16:06;;;;;;;8.10;5.60;;;;;;;7.79;50.96;97806.98;109787;1249;69399;-62
2022/04/12 07:18:35;;;;;;;9.10;5.70;;;;;;;8.23;47.08;97807.45;110039;1247;68602;-62
2022/04/12 07:21:04;;;;;;;8.00;5.90;;;;;;;8.95;47.29;97795.60;109868;1249;59760;-67
2022/04/12 07:23:36;;;;;;;8.30;6.80;;;;;;;9.42;45.09;97792.73;109945;1249;59757;-64
2022/04/12 07:26:05;;;;;;;6.90;5.90;;;;;;;10.02;44.92;97798.38;109966;1249;71495;-64
2022/04/12 07:28:34;;;;;;;7.90;6.00;;;;;;;10.55;42.95;97797.89;110036;1249;67865;-64
2022/04/12 07:31:04;;;;;;;7.60;6.20;;;;;;;10.84;41.09;97796.65;109844;1248;69318;-63
2022/04/12 07:33:34;;;;;;;7.10;5.50;;;;;;;11.04;39.51;97794.55;109958;1248;59677;-65
2022/04/12 07:36:04;;;;;;;8.60;5.90;;;;;;;11.12;40.15;97797.67;109987;1248;59703;-63
2022/04/12 07:38:33;;;;;;;;;;;;;;;11.27;39.37;97797.66;109927;1248;72166;-62
2022/04/12 07:41:04;;;;;;;8.50;7.70;;;;;;;11.72;40.82;97799.55;110093;1247;68574;-65
2022/04/12 07:43:34;;;;;;;9.70;8.20;;;;;;;11.74;40.13;97803.12;110058;1247;69533;-64
2022/04/12 07:46:04;;;;;;;8.30;7.00;;;;;;;11.43;40.09;97800.95;109805;1248;59713;-63
2022/04/12 07:48:49;;;;;;;13.30;11.70;;;;;;;11.89;41.47;97807.14;110088;1248;59669;-62
2022/04/12 07:51:18;;;;;;;11.50;8.80;;;;;;;11.74;39.72;97800.66;109918;1248;71656;-62
2022/04/12 07:53:47;;;;;;;8.00;6.70;;;;;;;12.04;39.44;97803.27;110167;1248;69403;-67
2022/04/12 07:56:17;;;;;;;8.10;7.30;;;;;;;12.24;39.55;97804.23;109877;1249;68597;-63
2022/04/12 07:58:47;;;;;;;8.30;6.80;;;;;;;12.20;37.62;97805.89;109923;1248;59687;-63
2022/04/12 08:01:16;;;;;;;8.00;6.70;;;;;;;12.56;39.25;97804.11;110140;1248;59686;-66
2022/04/12 08:03:47;;;;;;;8.10;6.60;;;;;;;12.73;37.36;97794.66;109793;1248;71587;-65
2022/04/12 08:06:16;;;;;;;8.50;7.50;;;;;;;12.44;36.87;97800.81;109962;1248;69329;-63
2022/04/12 08:08:46;;;;;;;10.30;9.10;;;;;;;12.09;36.95;97797.10;110085;1248;69379;-64
2022/04/12 08:11:15;;;;;;;7.50;6.70;;;;;;;11.78;38.66;97800.36;110008;1250;59751;-70
2022/04/12 08:13:45;;;;;;;8.40;6.60;;;;;;;12.54;38.78;97792.24;109917;1248;59745;-65
2022/04/12 08:16:15;;;;;;;8.70;6.50;;;;;;;12.57;36.88;97787.79;110096;1247;71568;-70
2022/04/12 08:18:47;;;;;;;6.50;5.50;;;;;;;12.10;36.94;97787.75;110091;1247;68435;-69
2022/04/12 08:21:35;;;;;;;7.30;6.00;;;;;;;11.73;37.45;97784.81;109944;1249;69428;-70
2022/04/12 08:24:06;;;;;;;9.60;5.90;;;;;;;11.63;37.62;97778.91;109986;1249;59741;-70
2022/04/12 08:26:36;;;;;;;7.20;5.90;;;;;;;11.68;37.21;97778.00;109971;1248;59683;-71
2022/04/12 08:29:06;;;;;;;9.40;7.70;;;;;;;11.09;39.03;97782.85;110057;1247;71384;-67
2022/04/12 08:31:36;;;;;;;;;;;;;;;11.93;38.70;97782.20;109949;1249;68644;-66
2022/04/12 08:34:05;;;;;;;9.20;6.60;;;;;;;11.75;37.61;97782.77;110068;1247;69465;-72
2022/04/12 08:36:36;;;;;;;7.80;7.00;;;;;;;12.52;37.09;97782.23;110047;1249;59735;-64
2022/04/12 08:39:06;;;;;;;7.80;5.80;;;;;;;12.71;37.13;97782.33;109949;1249;59699;-67
2022/04/12 08:41:38;;;;;;;7.10;5.70;;;;;;;13.49;36.12;97777.41;110033;1250;71473;-63
2022/04/12 08:44:08;;;;;;;5.50;5.00;;;;;;;13.57;34.98;97780.29;110047;1249;68635;-64
2022/04/12 08:46:44;;;;;;;6.40;5.50;;;;;;;14.05;34.59;97783.64;109995;1247;70173;-67
2022/04/12 08:49:14;;;;;;;8.50;5.80;;;;;;;14.62;33.78;97778.32;110031;1247;59708;-66
2022/04/12 08:51:45;;;;;;;7.60;5.60;;;;;;;14.92;33.33;97779.99;110041;1248;59739;-66
2022/04/12 08:54:18;;;;;;;5.20;4.10;;;;;;;14.60;32.56;97772.80;109795;1250;70762;-63
2022/04/12 08:56:49;;;;;;;5.30;3.90;;;;;;;15.29;31.42;97775.57;109947;1250;69505;-63
2022/04/12 08:59:20;;;;;;;5.80;4.60;;;;;;;15.79;30.74;97767.00;109796;1249;69550;-63
2022/04/12 09:01:50;;;;;;;4.70;4.10;;;;;;;14.74;31.02;97765.15;110047;1247;59759;-62
2022/04/12 09:04:20;;;;;;;5.20;4.60;;;;;;;15.58;30.73;97767.27;109795;1250;60107;-64
2022/04/12 09:06:50;;;;;;;6.60;4.80;;;;;;;15.64;30.42;97768.33;110040;1249;71826;-64
2022/04/12 09:09:22;;;;;;;5.50;4.10;;;;;;;15.54;29.38;97760.59;110036;1248;69374;-63
2022/04/12 09:12:02;;;;;;;5.30;4.10;;;;;;;15.19;30.28;97764.27;110025;1249;69396;-62
2022/04/12 09:14:46;;;;;;;5.70;4.20;;;;;;;14.73;30.88;97760.85;110029;1248;59701;-68
2022/04/12 09:17:34;;;;;;;4.70;3.50;;;;;;;15.35;30.34;97759.24;110009;1248;59682;-65
2022/04/12 09:20:09;;;;;;;4.50;3.90;;;;;;;15.17;29.67;97753.98;110049;1247;70655;-64
2022/04/12 09:22:39;;;;;;;5.40;4.50;;;;;;;14.66;30.76;97750.23;110139;1247;69306;-66
2022/04/12 09:25:11;;;;;;;6.80;4.00;;;;;;;13.79;31.19;97748.95;110076;1247;69746;-66
2022/04/12 09:27:44;;;;;;;5.50;4.40;;;;;;;13.54;32.22;97749.21;110037;1247;59654;-70
2022/04/12 09:30:14;;;;;;;6.00;4.00;;;;;;;12.86;32.97;97748.85;110224;1247;59737;-67
2022/04/12 09:32:50;;;;;;;5.90;4.00;;;;;;;12.62;33.38;97742.00;110224;1247;71241;-68
2022/04/12 09:35:20;;;;;;;4.90;4.00;;;;;;;12.62;33.48;97747.70;110205;1247;69384;-65
2022/04/12 09:37:49;;;;;;;5.10;4.10;;;;;;;12.42;32.69;97742.08;110234;1247;69417;-65
2022/04/12 09:40:18;;;;;;;3.80;3.00;;;;;;;12.85;33.83;97735.64;109942;1247;59705;-66
2022/04/12 09:42:51;;;;;;;4.50;3.30;;;;;;;13.27;33.15;97739.05;110182;1247;59685;-68
2022/04/12 09:45:22;;;;;;;5.00;3.60;;;;;;;13.17;31.84;97738.81;110256;1247;69788;-67
2022/04/12 09:48:11;;;;;;;4.00;3.20;;;;;;;12.66;32.54;97734.71;110158;1247;69474;-69
2022/04/12 09:51:00;;;;;;;3.80;3.20;;;;;;;12.54;32.74;97731.59;110190;1247;68845;-67
2022/04/12 09:53:40;;;;;;;2.70;2.40;;;;;;;13.01;33.09;97732.52;110141;1250;59699;-68
2022/04/12 09:56:29;;;;;;;4.70;2.60;;;;;;;13.41;30.78;97731.17;109994;1250;59687;-69
2022/04/12 09:59:01;;;;;;;3.90;2.90;;;;;;;14.29;30.06;97729.84;110030;1249;71645;-68
2022/04/12 10:01:31;;;;;;;3.40;2.60;;;;;;;15.16;29.73;97727.16;110123;1247;69444;-67
2022/04/12 10:04:01;;;;;;;3.70;3.30;;;;;;;15.32;28.87;97722.81;110078;1248;69436;-70
2022/04/12 10:06:31;;;;;;;3.60;2.80;;;;;;;14.57;27.47;97709.54;110180;1247;59700;-69
2022/04/12 10:09:00;;;;;;;4.20;2.50;;;;;;;14.35;27.85;97713.85;110004;1248;59754;-68
2022/04/12 10:11:29;;;;;;;3.00;2.30;;;;;;;13.95;27.07;97714.17;110204;1247;70792;-69
2022/04/12 10:14:01;;;;;;;4.00;2.60;;;;;;;13.87;27.64;97714.71;110196;1247;69505;-69
2022/04/12 10:16:30;;;;;;;3.20;2.20;;;;;;;13.71;28.34;97710.67;110189;1247;69460;-69
2022/04/12 10:19:00;;;;;;;3.00;2.20;;;;;;;13.50;28.84;97705.95;110163;1247;59697;-68
2022/04/12 10:21:29;;;;;;;3.00;2.20;;;;;;;13.55;29.30;97706.77;110010;1248;59692;-68
2022/04/12 10:24:01;;;;;;;3.40;1.90;;;;;;;13.27;28.98;97706.55;110123;1248;71573;-68
2022/04/12 10:26:31;;;;;;;4.00;2.70;;;;;;;12.84;29.97;97705.99;109980;1248;68692;-67
2022/04/12 10:29:05;;;;;;;4.70;2.70;;;;;;;12.70;30.28;97703.78;110184;1247;68461;-67
2022/04/12 10:31:34;;;;;;;3.00;2.60;;;;;;;12.38;30.35;97707.59;110190;1248;59734;-67
2022/04/12 10:34:11;;;;;;;2.50;2.00;;;;;;;11.70;30.85;97709.79;110082;1248;59689;-68
2022/04/12 10:36:55;;;;;;;3.90;2.80;;;;;;;11.78;31.40;97702.92;110287;1248;70650;-68
2022/04/12 10:39:50;;;;;;;3.40;2.40;;;;;;;12.16;31.24;97704.39;110146;1249;69440;-68
2022/04/12 10:42:24;;;;;;;2.90;2.50;;;;;;;12.45;30.74;97699.02;109972;1250;68654;-65
2022/04/12 10:44:58;;;;;;;3.70;3.30;;;;;;;12.50;30.35;97699.39;110070;1251;59684;-68
2022/04/12 10:47:34;;;;;;;2.60;2.30;;;;;;;12.34;30.29;97696.58;110035;1247;59684;-67
2022/04/12 10:50:12;;;;;;;4.20;2.80;;;;;;;12.15;30.09;97700.38;109905;1249;70660;-68
2022/04/12 10:52:48;;;;;;;3.30;2.60;;;;;;;12.12;30.70;97701.53;110029;1250;68626;-69
2022/04/12 10:55:27;;;;;;;3.00;2.40;;;;;;;12.09;30.61;97692.30;110178;1250;69443;-70
2022/04/12 10:58:19;;;;;;;3.80;2.40;;;;;;;11.98;31.11;97693.61;110136;1248;59777;-69
2022/04/12 11:00:48;;;;;;;3.80;2.90;;;;;;;11.93;31.29;97693.98;109908;1249;60111;-69
2022/04/12 11:03:17;;;;;;;4.10;2.70;;;;;;;12.31;31.61;97694.85;110086;1248;71376;-69
2022/04/12 11:05:51;;;;;;;2.90;2.50;;;;;;;12.35;30.19;97692.42;110211;1248;68619;-70
2022/04/12 11:08:20;;;;;;;3.50;2.30;;;;;;;12.23;30.15;97696.34;110020;1249;68646;-70
2022/04/12 11:10:52;;;;;;;3.30;2.30;;;;;;;12.61;30.43;97687.16;110169;1247;59798;-69
2022/04/12 11:13:28;;;;;;;3.00;2.50;;;;;;;12.81;30.53;97694.71;110097;1250;59686;-67
2022/04/12 11:16:11;;;;;;;4.90;2.50;;;;;;;12.88;29.43;97692.40;110036;1248;71040;-67
2022/04/12 11:18:58;;;;;;;3.60;2.50;;;;;;;12.58;28.54;97698.21;109947;1250;69416;-67
2022/04/12 11:21:44;;;;;;;3.50;2.00;;;;;;;12.24;28.33;97704.40;110034;1248;68843;-66
2022/04/12 11:24:16;;;;;;;3.90;2.60;;;;;;;11.67;29.36;97711.41;110043;1249;59741;-69
2022/04/12 11:26:48;;;;;;;4.00;3.00;;;;;;;11.61;30.68;97709.44;110175;1248;59752;-67
2022/04/12 11:29:20;;;;;;;4.30;2.30;;;;;;;11.41;31.67;97707.86;110006;1248;70815;-64
2022/04/12 11:31:51;;;;;;;4.20;3.00;;;;;;;11.41;31.47;97703.19;110025;1248;68696;-67
2022/04/12 11:34:22;;;;;;;3.00;2.30;;;;;;;11.59;31.63;97699.44;110050;1247;67697;-64
2022/04/12 11:37:11;;;;;;;3.80;2.90;;;;;;;12.05;30.82;97694.88;110014;1250;59776;-64
2022/04/12 11:39:43;;;;;;;2.80;2.40;;;;;;;12.70;29.19;97684.55;110250;1247;59689;-63
2022/04/12 11:42:15;;;;;;;2.90;2.20;;;;;;;13.24;28.58;97685.95;110037;1247;71589;-66
2022/04/12 11:44:55;;;;;;;5.20;2.80;;;;;;;14.14;27.65;97674.55;110034;1247;69804;-66